createdAt,value
2018-12-21T00:03:52.847Z,80.03
2018-12-21T00:07:56.336Z,79.05
2018-12-21T00:11:59.781Z,79.21
2018-12-21T00:16:03.243Z,78.90
2018-12-21T00:20:08.424Z,78.79
2018-12-21T00:24:11.895Z,78.87
2018-12-21T00:28:15.394Z,78.65
2018-12-21T00:32:24.119Z,78.93
2018-12-21T00:36:32.841Z,79.75
2018-12-21T00:40:41.520Z,79.47
2018-12-21T00:44:45.012Z,79.57
2018-12-21T00:48:48.497Z,79.08
2018-12-21T00:52:52.018Z,79.48
2018-12-21T00:56:55.499Z,79.52
2018-12-21T01:00:59.063Z,79.92
2018-12-21T01:05:02.584Z,79.61
2018-12-21T01:09:06.824Z,79.59
2018-12-21T01:13:11.949Z,79.26
2018-12-21T01:17:16.566Z,78.89
2018-12-21T01:21:21.148Z,79.63
2018-12-21T01:25:27.103Z,78.75
2018-12-21T01:29:30.701Z,79.54
2018-12-21T01:33:35.219Z,79.68
2018-12-21T01:37:38.765Z,79.30
2018-12-21T01:41:43.727Z,79.75
2018-12-21T01:45:47.281Z,79.05
2018-12-21T01:49:51.689Z,79.01
2018-12-21T01:53:55.296Z,79.17
2018-12-21T01:57:59.180Z,79.35
2018-12-21T02:02:03.138Z,79.14
2018-12-21T02:06:08.245Z,79.08
2018-12-21T02:10:11.648Z,78.87
2018-12-21T02:14:15.783Z,78.90
2018-12-21T02:18:19.240Z,78.97
2018-12-21T02:22:22.789Z,79.02
2018-12-21T02:26:26.342Z,79.10
2018-12-21T02:30:29.936Z,79.28
2018-12-21T02:34:33.403Z,79.69
2018-12-21T02:38:36.901Z,79.34
2018-12-21T02:42:40.398Z,78.78
2018-12-21T02:46:43.920Z,79.33
2018-12-21T02:50:47.603Z,78.74
2018-12-21T02:54:51.980Z,78.95
2018-12-21T02:58:55.693Z,78.94
2018-12-21T03:02:59.374Z,79.58
2018-12-21T03:07:02.983Z,79.15
2018-12-21T03:11:07.516Z,79.48
2018-12-21T03:15:10.996Z,79.17
2018-12-21T03:19:14.463Z,79.47
2018-12-21T03:23:17.974Z,79.18
2018-12-21T03:27:21.895Z,79.39
2018-12-21T03:31:25.483Z,79.32
2018-12-21T03:35:29.059Z,79.32
2018-12-21T03:39:32.645Z,79.08
2018-12-21T03:43:38.125Z,79.71
2018-12-21T03:47:42.318Z,79.82
2018-12-21T03:51:46.029Z,79.93
2018-12-21T03:55:49.696Z,79.38
2018-12-21T03:59:53.147Z,79.29
2018-12-21T04:03:58.145Z,79.89
2018-12-21T04:08:03.318Z,79.83
2018-12-21T04:12:06.803Z,80.00
2018-12-21T04:16:11.699Z,80.24
2018-12-21T04:20:15.252Z,79.72
2018-12-21T04:24:19.705Z,79.76
2018-12-21T04:28:23.331Z,80.29
2018-12-21T04:32:27.373Z,79.57
2018-12-21T04:36:31.309Z,80.22
2018-12-21T04:40:34.947Z,80.11
2018-12-21T04:44:38.389Z,79.98
2018-12-21T04:48:41.863Z,79.87
2018-12-21T04:52:45.414Z,80.05
2018-12-21T04:56:48.896Z,80.43
2018-12-21T05:00:52.484Z,80.53
2018-12-21T05:04:56.011Z,80.31
2018-12-21T05:09:00.372Z,80.98
2018-12-21T05:13:03.853Z,80.67
2018-12-21T05:17:07.497Z,80.64
2018-12-21T05:21:11.523Z,79.79
2018-12-21T05:25:14.951Z,79.67
2018-12-21T05:29:18.524Z,79.83
2018-12-21T05:33:22.043Z,79.88
2018-12-21T05:37:25.529Z,80.22
2018-12-21T05:41:29.019Z,80.15
2018-12-21T05:45:32.471Z,79.71
2018-12-21T05:49:36.083Z,80.07
2018-12-21T05:53:39.696Z,80.09
2018-12-21T05:57:43.308Z,80.67
2018-12-21T06:01:46.772Z,80.25
2018-12-21T06:05:50.224Z,80.18
2018-12-21T06:09:53.683Z,80.34
2018-12-21T06:13:57.157Z,80.60
2018-12-21T06:18:00.652Z,80.70
2018-12-21T06:22:04.789Z,81.03
2018-12-21T06:26:08.722Z,81.04
2018-12-21T06:30:13.250Z,80.77
2018-12-21T06:34:16.715Z,80.98
2018-12-21T06:38:20.419Z,80.73
2018-12-21T06:42:24.241Z,80.36
2018-12-21T06:46:27.940Z,80.52
2018-12-21T06:50:31.554Z,81.14
2018-12-21T06:54:35.299Z,80.82
2018-12-21T06:58:38.987Z,81.18
2018-12-21T07:02:42.492Z,80.95
2018-12-21T07:06:45.960Z,80.98
2018-12-21T07:10:49.519Z,80.79
2018-12-21T07:14:53.000Z,81.64
2018-12-21T07:18:56.523Z,81.70
2018-12-21T07:22:59.991Z,82.11
2018-12-21T07:27:04.719Z,81.62
2018-12-21T07:31:08.194Z,82.28
2018-12-21T07:35:14.055Z,82.44
2018-12-21T07:39:17.808Z,81.30
2018-12-21T07:43:21.298Z,81.50
2018-12-21T07:47:24.724Z,81.41
2018-12-21T07:51:28.216Z,81.46
2018-12-21T07:55:31.659Z,82.64
2018-12-21T07:59:35.137Z,82.15
2018-12-21T08:03:38.600Z,81.71
2018-12-21T08:07:42.108Z,81.66
2018-12-21T08:11:45.615Z,82.15
2018-12-21T08:15:49.124Z,82.19
2018-12-21T08:19:52.908Z,82.13
2018-12-21T08:23:56.424Z,81.85
2018-12-21T08:27:59.861Z,81.61
2018-12-21T08:32:05.819Z,82.01
2018-12-21T08:36:09.293Z,81.75
2018-12-21T08:40:12.723Z,81.65
2018-12-21T08:44:16.782Z,82.06
2018-12-21T08:48:20.278Z,81.53
2018-12-21T08:52:23.774Z,81.26
2018-12-21T08:56:28.113Z,81.65
2018-12-21T09:00:31.556Z,82.65
2018-12-21T09:04:34.997Z,83.36
2018-12-21T09:08:38.537Z,82.51
2018-12-21T09:12:42.282Z,81.56
2018-12-21T09:16:45.866Z,79.55
2018-12-21T09:20:49.486Z,79.41
2018-12-21T09:24:53.118Z,79.71
2018-12-21T09:28:56.636Z,79.78
2018-12-21T09:33:00.217Z,79.73
2018-12-21T09:37:04.008Z,80.29
2018-12-21T09:41:07.692Z,80.25
2018-12-21T09:45:11.245Z,79.44
2018-12-21T09:49:14.750Z,79.63
2018-12-21T09:53:18.222Z,79.75
2018-12-21T09:57:21.645Z,79.93
2018-12-21T10:01:25.160Z,79.63
2018-12-21T10:05:28.622Z,79.64
2018-12-21T10:09:32.103Z,79.50
2018-12-21T10:13:35.591Z,79.44
2018-12-21T10:17:39.113Z,79.77
2018-12-21T10:21:42.561Z,79.29
2018-12-21T10:25:46.035Z,79.34
2018-12-21T10:29:49.531Z,79.98
2018-12-21T10:33:52.942Z,79.69
2018-12-21T10:37:56.381Z,79.55
2018-12-21T10:41:59.852Z,79.02
2018-12-21T10:46:03.351Z,79.58
2018-12-21T10:50:09.777Z,79.42
2018-12-21T10:54:13.216Z,79.15
2018-12-21T10:58:16.667Z,79.47
2018-12-21T11:02:20.113Z,79.00
2018-12-21T11:06:23.509Z,78.40
2018-12-21T11:10:26.952Z,78.62
2018-12-21T11:14:30.487Z,79.06
2018-12-21T11:18:33.900Z,78.82
2018-12-21T11:22:37.369Z,78.80
2018-12-21T11:26:40.937Z,79.72
2018-12-21T11:30:44.601Z,79.60
2018-12-21T11:34:48.110Z,79.14
2018-12-21T11:38:51.678Z,79.47
2018-12-21T11:42:55.188Z,79.25
2018-12-21T11:46:58.801Z,78.86
2018-12-21T11:51:03.304Z,79.68
2018-12-21T11:55:06.911Z,79.37
2018-12-21T11:59:10.411Z,79.53
2018-12-21T12:03:13.960Z,79.18
2018-12-21T12:07:17.674Z,79.24
2018-12-21T12:11:21.191Z,79.42
2018-12-21T12:15:24.817Z,79.64
2018-12-21T12:19:28.302Z,79.34
2018-12-21T12:23:31.760Z,79.58
2018-12-21T12:27:35.255Z,79.56
2018-12-21T12:31:38.802Z,79.35
2018-12-21T12:35:42.528Z,79.78
2018-12-21T12:39:46.114Z,80.34
2018-12-21T12:43:49.885Z,79.53
2018-12-21T12:47:53.351Z,79.88
2018-12-21T12:51:56.859Z,79.41
2018-12-21T12:56:00.306Z,80.21
2018-12-21T13:00:03.800Z,79.60
2018-12-21T13:04:07.251Z,79.55
2018-12-21T13:08:10.733Z,80.34
2018-12-21T13:12:14.186Z,80.22
2018-12-21T13:16:17.625Z,79.67
2018-12-21T13:20:21.092Z,79.79
2018-12-21T13:24:24.542Z,80.10
2018-12-21T13:28:27.992Z,80.51
2018-12-21T13:32:31.399Z,80.33
2018-12-21T13:36:36.634Z,80.53
2018-12-21T13:40:40.469Z,79.96
2018-12-21T13:44:44.247Z,79.73
2018-12-21T13:48:47.796Z,79.73
2018-12-21T13:52:51.419Z,79.38
2018-12-21T13:56:54.942Z,80.02
2018-12-21T14:00:58.424Z,80.29
2018-12-21T14:05:01.928Z,80.23
2018-12-21T14:09:07.756Z,80.18
2018-12-21T14:13:11.237Z,79.81
2018-12-21T14:17:14.687Z,80.20
2018-12-21T14:21:18.132Z,80.39
2018-12-21T14:25:28.762Z,80.01
2018-12-21T14:29:27.412Z,80.13
2018-12-21T14:33:30.869Z,80.93
2018-12-21T14:37:34.295Z,80.98
2018-12-21T14:41:37.821Z,80.48
2018-12-21T14:45:41.294Z,80.82
2018-12-21T14:49:44.751Z,80.68
2018-12-21T14:53:48.155Z,80.63
2018-12-21T14:57:51.603Z,80.81
2018-12-21T15:01:55.072Z,80.27
2018-12-21T15:05:58.500Z,80.84
2018-12-21T15:10:02.011Z,80.49
2018-12-21T15:14:05.488Z,80.68
2018-12-21T15:18:09.118Z,79.64
2018-12-21T15:22:12.561Z,80.70
2018-12-21T15:26:16.000Z,80.84
2018-12-21T15:30:19.454Z,80.38
2018-12-21T15:34:22.913Z,80.72
2018-12-21T15:38:26.385Z,80.90
2018-12-21T15:42:30.047Z,80.69
2018-12-21T15:46:33.600Z,81.65
2018-12-21T15:50:37.122Z,81.01
2018-12-21T15:54:40.802Z,82.08
2018-12-21T15:58:44.222Z,81.33
2018-12-21T16:02:51.253Z,81.25
2018-12-21T16:06:54.865Z,81.71
2018-12-21T16:10:58.369Z,81.05
2018-12-21T16:15:01.938Z,81.47
2018-12-21T16:19:05.383Z,81.38
2018-12-21T16:23:09.314Z,80.72
2018-12-21T16:27:12.766Z,80.89
2018-12-21T16:31:16.263Z,81.51
2018-12-21T16:35:19.804Z,81.37
2018-12-21T16:39:23.466Z,81.02
2018-12-21T16:43:27.128Z,81.16
2018-12-21T16:47:30.646Z,81.35
2018-12-21T16:51:34.212Z,81.52
2018-12-21T16:55:37.965Z,80.86
2018-12-21T16:59:42.072Z,81.24
2018-12-21T17:03:45.608Z,81.12
2018-12-21T17:07:49.122Z,81.19
2018-12-21T17:11:52.596Z,82.00
2018-12-21T17:15:56.055Z,81.54
2018-12-21T17:19:59.513Z,81.73
2018-12-21T17:24:03.019Z,82.22
2018-12-21T17:28:06.664Z,81.69
2018-12-21T17:32:10.645Z,82.06
2018-12-21T17:36:14.143Z,81.97
2018-12-21T17:40:18.068Z,82.03
2018-12-21T17:44:21.651Z,81.62
2018-12-21T17:48:25.258Z,81.60
2018-12-21T17:52:28.734Z,81.90
2018-12-21T17:56:32.154Z,82.01
2018-12-21T18:00:36.560Z,81.68
2018-12-21T18:04:39.999Z,81.95
2018-12-21T18:08:43.432Z,82.38
2018-12-21T18:12:46.977Z,82.44
2018-12-21T18:16:50.475Z,81.87
2018-12-21T18:20:54.096Z,82.31
2018-12-21T18:25:03.328Z,82.22
2018-12-21T18:29:06.817Z,81.63
2018-12-21T18:33:12.638Z,81.86
2018-12-21T18:37:16.137Z,82.03
2018-12-21T18:41:19.785Z,81.67
2018-12-21T18:45:23.239Z,81.33
2018-12-21T18:49:26.818Z,81.24
2018-12-21T18:53:30.378Z,81.70
2018-12-21T18:57:33.939Z,81.89
2018-12-21T19:01:37.436Z,81.61
2018-12-21T19:05:40.988Z,81.46
2018-12-21T19:09:44.476Z,80.92
2018-12-21T19:13:48.230Z,81.41
2018-12-21T19:17:51.764Z,81.16
2018-12-21T19:21:55.249Z,81.19
2018-12-21T19:25:58.691Z,81.58
2018-12-21T19:30:02.154Z,81.67
2018-12-21T19:34:05.608Z,81.65
2018-12-21T19:38:09.146Z,81.34
2018-12-21T19:42:12.726Z,82.08
2018-12-21T19:46:16.348Z,82.00
2018-12-21T19:50:19.984Z,81.43
2018-12-21T19:54:24.240Z,82.02
2018-12-21T19:58:27.764Z,81.90
2018-12-21T20:02:31.211Z,81.77
2018-12-21T20:06:34.836Z,81.71
2018-12-21T20:10:38.333Z,81.93
2018-12-21T20:14:41.862Z,82.14
2018-12-21T20:18:45.325Z,81.62
2018-12-21T20:22:48.834Z,82.12
2018-12-21T20:26:55.532Z,81.94
2018-12-21T20:31:00.069Z,81.82
2018-12-21T20:35:03.529Z,82.10
2018-12-21T20:39:14.308Z,81.32
2018-12-21T20:43:17.785Z,81.29
2018-12-21T20:47:21.202Z,81.28
2018-12-21T20:51:24.686Z,81.26
2018-12-21T20:55:28.325Z,81.59
2018-12-21T20:59:31.887Z,81.46
2018-12-21T21:03:35.491Z,81.34
2018-12-21T21:07:38.944Z,81.54
2018-12-21T21:11:42.439Z,81.84
2018-12-21T21:15:45.901Z,81.53
2018-12-21T21:19:49.300Z,81.86
2018-12-21T21:23:52.807Z,81.37
2018-12-21T21:27:56.440Z,81.31
2018-12-21T21:32:00.387Z,81.37
2018-12-21T21:36:04.176Z,81.46
2018-12-21T21:40:11.299Z,81.25
2018-12-21T21:44:15.928Z,82.06
2018-12-21T21:48:19.769Z,81.31
2018-12-21T21:52:23.436Z,81.80
2018-12-21T21:56:27.137Z,82.12
2018-12-21T22:00:32.629Z,81.96
2018-12-21T22:04:36.268Z,81.11
2018-12-21T22:08:39.779Z,81.64
2018-12-21T22:12:43.687Z,81.78
2018-12-21T22:16:47.688Z,81.15
2018-12-21T22:20:51.523Z,81.85
2018-12-21T22:24:55.119Z,81.63
2018-12-21T22:28:58.749Z,81.05
2018-12-21T22:33:02.473Z,82.06
2018-12-21T22:37:06.107Z,81.95
2018-12-21T22:41:09.890Z,81.25
2018-12-21T22:45:13.563Z,81.28
2018-12-21T22:49:17.120Z,81.99
2018-12-21T22:53:20.696Z,81.91
2018-12-21T22:57:24.141Z,81.51
2018-12-21T23:01:27.623Z,81.84
2018-12-21T23:05:31.105Z,81.60
2018-12-21T23:09:34.783Z,81.22
2018-12-21T23:13:38.360Z,81.92
2018-12-21T23:17:41.856Z,82.02
2018-12-21T23:21:45.340Z,81.92
2018-12-21T23:25:48.798Z,81.21
2018-12-21T23:29:52.289Z,81.60
2018-12-21T23:33:55.775Z,80.70
2018-12-21T23:37:59.223Z,80.85
2018-12-21T23:42:02.920Z,81.06
2018-12-21T23:46:06.364Z,80.82
2018-12-21T23:50:09.834Z,80.82
2018-12-21T23:54:13.952Z,80.61
2018-12-21T23:58:17.467Z,79.96
